Time;durP1;ratioP1;P1;durP2;ratioP2;P2;SDS_P1;SDS_P2;PMS_P1;PMS_P2;Temp;Humidity;BMP_temperature;BMP_pressure;BME280_temperature;BME280_humidity;BME280_pressure;Samples;Min_cycle;Max_cycle;Signal;HPM_P1;HPM_P2
2021/12/13 00:01:28;;;;;;;13.67;6.37;;;;;;;5.61;87.30;101592.41;21032094;28;20032;-73
2021/12/13 00:11:40;;;;;;;14.47;6.37;;;;;;;5.54;87.43;101583.59;21031564;28;20052;-73
2021/12/13 00:21:48;;;;;;;14.50;6.07;;;;;;;5.56;87.17;101581.03;21029248;28;20094;-75
2021/12/13 00:32:18;;;;;;;12.18;6.57;;;;;;;5.61;84.16;101580.31;21029175;28;20455;-75
2021/12/13 00:42:24;;;;;;;14.70;6.65;;;;;;;5.54;83.94;101603.50;21037112;28;20082;-75
2021/12/13 00:52:29;;;;;;;12.13;6.60;;;;;;;5.57;84.74;101603.56;21028267;28;20416;-76
2021/12/13 01:02:41;;;;;;;13.20;5.93;;;;;;;5.58;85.89;101601.00;21027213;28;20463;-74
2021/12/13 01:12:46;;;;;;;9.88;5.63;;;;;;;5.56;85.82;101594.91;21024453;28;20053;-75
2021/12/13 01:23:02;;;;;;;11.13;5.93;;;;;;;5.48;87.66;101598.16;21024713;28;20117;-74
2021/12/13 01:33:07;;;;;;;12.88;6.25;;;;;;;5.43;86.82;101605.84;21022592;28;20044;-75
2021/12/13 01:43:28;;;;;;;14.60;6.13;;;;;;;5.42;87.68;101603.22;21022267;28;20052;-74
2021/12/13 01:53:32;;;;;;;10.93;5.90;;;;;;;5.34;88.10;101606.47;21022434;28;20331;-74
2021/12/13 02:03:45;;;;;;;16.95;6.88;;;;;;;5.42;87.37;101609.28;21022687;28;20071;-74
2021/12/13 02:14:06;;;;;;;13.85;6.82;;;;;;;5.37;88.03;101606.56;21021140;28;20079;-73
2021/12/13 02:24:11;;;;;;;12.25;6.70;;;;;;;5.41;87.74;101615.28;21021000;28;20505;-73
2021/12/13 02:34:16;;;;;;;15.43;7.90;;;;;;;5.44;86.59;101619.69;21020441;28;20053;-74
2021/12/13 02:44:45;;;;;;;12.93;6.97;;;;;;;5.57;86.28;101629.56;21021013;28;20110;-74
2021/12/13 02:54:52;;;;;;;15.30;7.57;;;;;;;5.48;88.58;101624.13;21020722;28;20052;-74
2021/12/13 03:04:54;;;;;;;17.33;7.88;;;;;;;5.50;90.17;101622.44;21017408;28;20109;-74
2021/12/13 03:15:02;;;;;;;16.30;6.78;;;;;;;5.58;91.84;101626.13;21021885;28;20470;-77
2021/12/13 03:25:11;;;;;;;12.95;6.40;;;;;;;5.59;92.99;101627.88;21015977;28;20106;-76
2021/12/13 03:35:21;;;;;;;12.00;6.07;;;;;;;5.60;93.45;101621.81;21017261;28;20052;-76
2021/12/13 03:45:30;;;;;;;10.50;5.43;;;;;;;5.60;94.16;101614.03;21023638;28;20078;-76
2021/12/13 03:55:33;;;;;;;10.73;5.05;;;;;;;5.59;95.08;101628.75;21034894;28;20093;-74
2021/12/13 04:05:35;;;;;;;14.32;5.60;;;;;;;5.58;96.25;101626.13;21008917;28;20056;-74
2021/12/13 04:15:53;;;;;;;12.73;5.05;;;;;;;5.58;97.02;101623.50;21033354;28;20048;-76
2021/12/13 04:25:58;;;;;;;11.25;4.85;;;;;;;5.55;98.51;101621.69;21031258;28;20106;-78
2021/12/13 04:36:21;;;;;;;11.18;5.15;;;;;;;5.59;99.28;101622.66;21029222;28;20048;-77
2021/12/13 04:46:27;;;;;;;15.35;6.60;;;;;;;5.61;99.34;101634.00;21029470;28;20052;-75
2021/12/13 04:56:29;;;;;;;15.63;7.40;;;;;;;5.55;99.83;101637.28;21027070;28;20040;-74
2021/12/13 05:06:35;;;;;;;17.48;8.07;;;;;;;5.50;99.76;101627.63;21027939;28;20121;-74
2021/12/13 05:16:46;;;;;;;19.00;8.85;;;;;;;5.36;99.89;101633.34;21025048;28;20097;-76
2021/12/13 05:26:57;;;;;;;21.88;10.77;;;;;;;5.21;99.94;101639.88;21025029;28;20048;-75
2021/12/13 05:37:01;;;;;;;20.80;11.77;;;;;;;5.12;100.00;101648.31;21024332;28;20058;-75
2021/12/13 05:47:16;;;;;;;23.33;13.25;;;;;;;5.01;100.00;101653.22;21025159;28;20048;-75
2021/12/13 05:57:22;;;;;;;29.77;17.53;;;;;;;4.95;100.00;101652.19;21023801;28;20045;-75
2021/12/13 06:07:27;;;;;;;28.83;15.73;;;;;;;4.82;100.00;101659.63;21021688;28;20047;-75
2021/12/13 06:17:30;;;;;;;;;;;;;;;4.83;100.00;101663.97;21007088;28;20101;-77
2021/12/13 06:27:42;;;;;;;24.48;13.27;;;;;;;4.79;100.00;101674.22;20995672;28;19986;-75
2021/12/13 06:37:44;;;;;;;25.70;14.60;;;;;;;4.74;100.00;101681.88;21021798;28;20052;-76
2021/12/13 06:47:51;;;;;;;23.75;12.05;;;;;;;4.68;100.00;101686.88;21024328;28;20100;-76
2021/12/13 06:57:57;;;;;;;27.52;14.27;;;;;;;4.69;100.00;101701.59;21019634;28;20048;-75
2021/12/13 07:08:03;;;;;;;28.08;14.98;;;;;;;4.71;100.00;101694.78;21020770;28;20052;-76
2021/12/13 07:18:18;;;;;;;30.02;16.00;;;;;;;4.79;100.00;101698.47;21022663;28;20056;-76
2021/12/13 07:28:29;;;;;;;33.92;16.77;;;;;;;4.78;100.00;101696.69;21036422;28;20053;-76
2021/12/13 07:38:31;;;;;;;34.53;16.17;;;;;;;4.79;100.00;101703.66;21047745;28;20413;-76
2021/12/13 07:48:49;;;;;;;32.42;16.27;;;;;;;4.77;100.00;101720.88;21076369;28;20455;-78
2021/12/13 07:59:00;;;;;;;38.65;18.98;;;;;;;4.98;100.00;101725.78;21071779;28;20040;-76
2021/12/13 08:09:05;;;;;;;28.60;14.70;;;;;;;5.03;100.00;101723.34;21063308;28;20078;-77
2021/12/13 08:19:22;;;;;;;28.08;14.80;;;;;;;5.19;100.00;101729.84;21065722;28;20105;-76
2021/12/13 08:29:29;;;;;;;32.30;15.23;;;;;;;5.24;100.00;101734.31;21062918;28;20623;-77
2021/12/13 08:39:35;;;;;;;29.92;15.07;;;;;;;5.46;100.00;101733.19;21043417;28;20094;-74
2021/12/13 08:49:47;;;;;;;30.95;15.13;;;;;;;5.62;100.00;101726.69;21063032;28;20584;-78
2021/12/13 08:59:51;;;;;;;25.30;13.60;;;;;;;5.81;99.51;101736.69;21030191;28;20089;-76
2021/12/13 09:09:54;;;;;;;25.57;12.50;;;;;;;5.85;100.00;101738.53;21061700;28;20056;-75
2021/12/13 09:20:07;;;;;;;20.05;11.27;;;;;;;6.06;100.00;101734.72;21060760;28;20078;-77
2021/12/13 09:30:11;;;;;;;21.50;10.75;;;;;;;6.32;99.29;101741.41;21055822;28;20052;-77
2021/12/13 09:40:15;;;;;;;17.63;8.50;;;;;;;6.54;98.40;101744.50;21019185;28;20044;-79
2021/12/13 09:50:25;;;;;;;14.37;8.20;;;;;;;6.66;98.49;101750.88;21016117;28;20101;-76
2021/12/13 10:00:56;;;;;;;18.83;9.68;;;;;;;6.77;98.03;101742.41;21021913;28;20040;-75
2021/12/13 10:11:08;;;;;;;27.88;13.18;;;;;;;6.76;97.84;101733.75;21017797;28;20481;-75
2021/12/13 10:21:15;;;;;;;24.63;12.35;;;;;;;7.12;97.66;101719.69;21020751;28;20049;-75
2021/12/13 10:31:22;;;;;;;23.98;12.57;;;;;;;7.43;96.29;101698.59;21012245;28;20044;-75
2021/12/13 10:41:31;;;;;;;21.08;11.05;;;;;;;7.48;94.18;101682.16;21016435;28;20040;-75
2021/12/13 10:51:37;;;;;;;23.83;12.27;;;;;;;7.59;95.92;101683.22;21015643;28;20471;-75
2021/12/13 11:01:43;;;;;;;21.13;10.95;;;;;;;7.76;94.04;101689.59;21032696;28;20505;-75
2021/12/13 11:11:53;;;;;;;15.85;8.85;;;;;;;8.15;91.68;101693.69;21031625;28;20074;-75
2021/12/13 11:22:01;;;;;;;20.80;11.40;;;;;;;8.10;92.18;101684.91;21028188;28;20044;-74
2021/12/13 11:32:46;;;;;;;21.35;10.13;;;;;;;7.62;94.35;101685.88;21029170;28;20052;-74
2021/12/13 11:43:25;;;;;;;18.77;10.43;;;;;;;7.62;93.73;101684.16;21027660;28;20459;-74
2021/12/13 11:53:59;;;;;;;20.83;9.85;;;;;;;7.68;94.02;101665.13;21026260;28;20053;-76
2021/12/13 12:04:06;;;;;;;17.80;9.48;;;;;;;7.90;92.09;101672.41;20992812;28;20052;-78
2021/12/13 12:14:11;;;;;;;14.65;8.50;;;;;;;7.99;92.00;101656.03;21027461;28;20052;-76
2021/12/13 12:24:21;;;;;;;16.20;8.75;;;;;;;8.11;91.23;101639.72;21042021;28;20121;-77
2021/12/13 12:34:22;;;;;;;17.85;8.52;;;;;;;8.02;92.03;101634.34;21022970;28;20044;-77
2021/12/13 12:44:32;;;;;;;27.02;13.18;;;;;;;8.04;92.63;101627.41;21023784;28;20105;-78
2021/12/13 12:54:36;;;;;;;18.65;10.27;;;;;;;8.09;93.15;101612.69;21023913;28;20444;-76
2021/12/13 13:04:50;;;;;;;17.38;9.82;;;;;;;8.05;93.04;101616.13;21027371;28;20382;-75
2021/12/13 13:14:55;;;;;;;17.23;9.47;;;;;;;8.02;94.06;101606.53;21024967;28;20044;-76
2021/12/13 13:25:00;;;;;;;;;;;;;;;7.95;94.74;101597.75;21027129;28;20459;-74
2021/12/13 13:35:03;;;;;;;21.73;10.93;;;;;;;8.11;94.00;101587.53;21039527;28;19973;-74
2021/12/13 13:45:06;;;;;;;17.37;8.40;;;;;;;8.19;93.56;101580.66;21020602;28;20139;-73
2021/12/13 13:56:06;;;;;;;16.10;9.27;;;;;;;8.31;92.84;101585.19;21024015;28;20040;-74
2021/12/13 14:06:12;;;;;;;19.38;9.43;;;;;;;8.23;92.92;101593.78;21004269;28;20496;-73
2021/12/13 14:16:19;;;;;;;14.45;7.68;;;;;;;8.21;93.55;101592.00;21023643;28;20393;-74
2021/12/13 14:26:29;;;;;;;14.10;7.18;;;;;;;8.26;93.36;101589.47;21014348;28;20547;-74
2021/12/13 14:36:36;;;;;;;13.32;7.28;;;;;;;8.18;93.46;101589.34;21023172;28;20057;-75
2021/12/13 14:46:43;;;;;;;14.75;7.50;;;;;;;8.15;93.44;101600.63;21016658;28;20419;-74
2021/12/13 14:56:52;;;;;;;36.25;15.40;;;;;;;8.01;94.62;101607.41;21014739;28;20080;-75
2021/12/13 15:07:11;;;;;;;14.52;8.13;;;;;;;7.98;94.79;101610.81;21013444;28;20053;-75
2021/12/13 15:17:25;;;;;;;15.77;7.93;;;;;;;8.09;93.60;101604.88;21015295;28;20036;-74
2021/12/13 15:27:30;;;;;;;17.20;8.93;;;;;;;8.01;93.55;101611.75;21012060;28;20106;-75
2021/12/13 15:37:39;;;;;;;15.57;9.02;;;;;;;7.90;94.18;101607.22;21020154;28;20040;-75
2021/12/13 15:58:19;;;;;;;17.15;9.32;;;;;;;7.71;95.13;101605.19;21029338;28;20048;-77
2021/12/13 16:08:40;;;;;;;17.15;9.20;;;;;;;7.76;94.82;101611.38;21023562;28;20462;-76
2021/12/13 16:18:42;;;;;;;23.33;10.65;;;;;;;7.71;94.67;101608.72;21030081;28;20048;-77
2021/12/13 16:28:46;;;;;;;22.23;11.70;;;;;;;7.72;94.95;101625.22;21022465;28;20049;-77
2021/12/13 16:38:54;;;;;;;22.37;12.83;;;;;;;7.71;94.23;101619.13;21020827;28;20049;-76
2021/12/13 16:49:06;;;;;;;49.75;25.45;;;;;;;7.77;93.88;101615.75;21026063;28;20070;-77
2021/12/13 16:59:08;;;;;;;24.15;13.05;;;;;;;7.78;93.92;101616.63;21027490;28;20048;-77
2021/12/13 17:09:10;;;;;;;20.08;9.88;;;;;;;7.72;94.66;101610.47;21021160;28;20170;-77
2021/12/13 17:19:15;;;;;;;17.23;9.30;;;;;;;7.71;94.31;101619.13;21017684;28;20424;-77
2021/12/13 17:29:23;;;;;;;23.73;12.02;;;;;;;7.78;94.86;101612.28;21021555;28;20098;-77
2021/12/13 17:39:29;;;;;;;16.20;9.35;;;;;;;7.62;95.67;101607.69;21023173;28;20488;-77
2021/12/13 17:49:49;;;;;;;14.80;8.90;;;;;;;7.68;96.03;101644.28;21016172;28;20496;-77
2021/12/13 17:59:51;;;;;;;19.58;11.27;;;;;;;7.64;96.13;101637.25;21015040;28;20087;-77
2021/12/13 18:09:52;;;;;;;27.05;13.65;;;;;;;7.70;96.77;101629.53;21016780;28;20101;-77
2021/12/13 18:20:17;;;;;;;21.33;10.57;;;;;;;7.72;96.37;101635.66;21016552;28;20044;-77
2021/12/13 18:30:23;;;;;;;22.53;9.83;;;;;;;7.70;96.76;101639.94;20972729;28;20060;-77
2021/12/13 18:40:35;;;;;;;23.25;11.93;;;;;;;7.71;96.91;101639.09;21005458;28;20052;-77
2021/12/13 18:50:44;;;;;;;19.23;10.77;;;;;;;7.64;98.09;101665.91;21013535;28;20047;-77
2021/12/13 19:01:03;;;;;;;27.40;15.20;;;;;;;7.62;98.58;101676.34;21016108;28;20040;-77
2021/12/13 19:11:19;;;;;;;28.40;17.42;;;;;;;7.65;98.75;101649.41;21013795;28;20051;-77
2021/12/13 19:21:27;;;;;;;35.15;19.00;;;;;;;7.70;98.54;101647.75;21026105;28;20056;-77
2021/12/13 19:31:33;;;;;;;32.55;19.05;;;;;;;7.70;98.38;101671.22;21040188;28;20165;-77
2021/12/13 19:41:45;;;;;;;28.60;16.00;;;;;;;7.67;99.15;101656.44;21012955;28;20048;-76
2021/12/13 19:52:00;;;;;;;35.70;21.80;;;;;;;7.70;99.31;101642.56;21034626;28;20401;-75
2021/12/13 20:02:07;;;;;;;27.13;16.83;;;;;;;7.64;100.00;101647.69;21040100;28;20105;-75
2021/12/13 20:12:15;;;;;;;30.70;18.60;;;;;;;7.63;100.00;101646.81;21029293;28;20110;-75
2021/12/13 20:22:22;;;;;;;28.42;16.13;;;;;;;7.59;100.00;101638.91;21023660;28;20385;-75
2021/12/13 20:32:39;;;;;;;29.38;16.27;;;;;;;7.46;98.92;101649.13;21021595;28;20174;-75
2021/12/13 20:43:00;;;;;;;24.85;14.85;;;;;;;7.36;98.19;101636.78;21023310;28;20471;-77
2021/12/13 20:53:04;;;;;;;22.83;14.23;;;;;;;7.30;98.59;101636.69;21022875;28;20092;-77
2021/12/13 21:03:17;;;;;;;30.67;17.17;;;;;;;7.25;98.29;101622.72;21028015;28;20093;-74
2021/12/13 21:13:22;;;;;;;25.33;15.07;;;;;;;7.19;98.35;101627.81;21027590;28;20109;-72
2021/12/13 21:23:33;;;;;;;26.20;15.18;;;;;;;7.14;98.35;101632.06;21021922;28;20481;-72
2021/12/13 21:33:46;;;;;;;27.35;15.02;;;;;;;7.12;98.54;101625.94;21024107;28;20045;-72
2021/12/13 21:43:58;;;;;;;28.80;16.27;;;;;;;7.11;98.36;101613.75;21016163;28;20311;-73
2021/12/13 21:54:10;;;;;;;27.92;16.63;;;;;;;7.08;98.74;101613.69;21017066;28;20101;-72
2021/12/13 22:04:17;;;;;;;27.80;16.15;;;;;;;7.03;98.29;101618.81;21018886;28;20666;-72
2021/12/13 22:14:21;;;;;;;29.67;15.13;;;;;;;7.03;98.31;101620.56;21016864;28;20418;-72
2021/12/13 22:24:29;;;;;;;32.13;17.13;;;;;;;6.95;98.40;101638.66;20973357;28;20456;-72
2021/12/13 22:34:40;;;;;;;30.58;17.23;;;;;;;6.87;98.49;101625.47;20999190;28;20045;-72
2021/12/13 22:44:43;;;;;;;28.75;16.13;;;;;;;6.88;98.13;101635.03;21015496;28;20052;-72
2021/12/13 22:54:45;;;;;;;30.55;16.42;;;;;;;6.85;98.02;101636.69;21015908;28;20052;-71
2021/12/13 23:05:16;;;;;;;27.50;16.67;;;;;;;6.76;98.25;101621.81;21017828;28;20070;-70
2021/12/13 23:15:24;;;;;;;28.77;17.27;;;;;;;6.73;97.68;101606.13;21021634;28;20040;-71
2021/12/13 23:25:31;;;;;;;26.92;16.70;;;;;;;6.71;98.21;101605.22;21018796;28;20052;-71
2021/12/13 23:35:48;;;;;;;27.80;16.35;;;;;;;6.65;97.52;101603.34;21020005;28;20055;-71
2021/12/13 23:46:00;;;;;;;29.13;15.98;;;;;;;6.66;97.83;101599.06;21021832;28;20055;-73
2021/12/13 23:56:14;;;;;;;27.98;16.48;;;;;;;6.59;98.12;101617.97;21015333;28;20090;-69
